Time;durP1;ratioP1;P1;durP2;ratioP2;P2;SDS_P1;SDS_P2;PMS_P1;PMS_P2;Temp;Humidity;BMP_temperature;BMP_pressure;BME280_temperature;BME280_humidity;BME280_pressure;Samples;Min_cycle;Max_cycle;Signal;HPM_P1;HPM_P2
2021/11/25 00:00:04;;;;;;;0.20;0.20;;;;;;;;;;5118970;28;20213;-74
2021/11/25 00:02:30;;;;;;;0.10;0.10;;;;;;;;;;5125866;28;20206;-74
2021/11/25 00:04:57;;;;;;;0.10;0.10;;;;;;;;;;5122914;28;20454;-74
2021/11/25 00:07:23;;;;;;;0.10;0.10;;;;;;;;;;5125902;28;20199;-74
2021/11/25 00:09:51;;;;;;;0.10;0.10;;;;;;;;;;5125098;28;20210;-73
2021/11/25 00:12:17;;;;;;;0.20;0.20;;;;;;;;;;5117197;28;20268;-74
2021/11/25 00:14:45;;;;;;;0.10;0.10;;;;;;;;;;5122242;28;20194;-74
2021/11/25 00:17:11;;;;;;;0.10;0.10;;;;;;;;;;5124560;28;20209;-74
2021/11/25 00:19:38;;;;;;;0.10;0.10;;;;;;;;;;5125472;28;20210;-74
2021/11/25 00:22:04;;;;;;;0.10;0.10;;;;;;;;;;5125427;28;20205;-74
2021/11/25 00:24:31;;;;;;;0.10;0.10;;;;;;;;;;5125176;28;20422;-74
2021/11/25 00:26:57;;;;;;;0.10;0.10;;;;;;;;;;5125680;28;20211;-71
2021/11/25 00:29:25;;;;;;;0.10;0.10;;;;;;;;;;5121687;28;20206;-72
2021/11/25 00:31:52;;;;;;;0.10;0.10;;;;;;;;;;5121966;28;20202;-72
2021/11/25 00:34:19;;;;;;;0.20;0.20;;;;;;;;;;5125676;28;20209;-72
2021/11/25 00:36:45;;;;;;;0.10;0.10;;;;;;;;;;5125566;27;20508;-72
2021/11/25 00:39:12;;;;;;;0.10;0.10;;;;;;;;;;5123574;28;20208;-72
2021/11/25 00:41:39;;;;;;;0.10;0.10;;;;;;;;;;5105002;28;20374;-71
2021/11/25 00:44:06;;;;;;;0.20;0.20;;;;;;;;;;5112569;28;20194;-72
2021/11/25 00:46:32;;;;;;;0.10;0.10;;;;;;;;;;5125036;28;20547;-71
2021/11/25 00:49:00;;;;;;;0.10;0.10;;;;;;;;;;5124661;28;20204;-74
2021/11/25 00:51:27;;;;;;;0.10;0.10;;;;;;;;;;5125240;28;20205;-73
2021/11/25 00:53:53;;;;;;;0.20;0.20;;;;;;;;;;5123087;28;20205;-73
2021/11/25 00:56:22;;;;;;;0.10;0.10;;;;;;;;;;5116846;28;20248;-73
2021/11/25 00:58:48;;;;;;;0.10;0.10;;;;;;;;;;5125240;28;20228;-71
2021/11/25 01:01:15;;;;;;;0.10;0.10;;;;;;;;;;5115127;28;20404;-71
2021/11/25 01:03:41;;;;;;;0.10;0.10;;;;;;;;;;5124429;28;20228;-71
2021/11/25 01:06:09;;;;;;;0.10;0.10;;;;;;;;;;5124628;28;20508;-71
2021/11/25 01:08:35;;;;;;;0.10;0.10;;;;;;;;;;5110796;28;20212;-71
2021/11/25 01:11:02;;;;;;;0.10;0.10;;;;;;;;;;5116174;28;20225;-71
2021/11/25 01:13:29;;;;;;;0.13;0.13;;;;;;;;;;5124446;28;20254;-71
2021/11/25 01:15:55;;;;;;;0.10;0.10;;;;;;;;;;5114619;28;20442;-71
2021/11/25 01:18:22;;;;;;;0.10;0.10;;;;;;;;;;5111832;28;20205;-71
2021/11/25 01:20:50;;;;;;;0.10;0.10;;;;;;;;;;5114508;28;20205;-71
2021/11/25 01:23:20;;;;;;;0.10;0.10;;;;;;;;;;5113054;28;20595;-70
2021/11/25 01:25:47;;;;;;;0.10;0.10;;;;;;;;;;5119399;28;20210;-72
2021/11/25 01:28:14;;;;;;;0.17;0.17;;;;;;;;;;5115976;28;20500;-70
2021/11/25 01:30:41;;;;;;;0.10;0.10;;;;;;;;;;5123535;28;20201;-71
2021/11/25 01:33:07;;;;;;;0.10;0.10;;;;;;;;;;5122706;28;20217;-71
2021/11/25 01:35:34;;;;;;;0.10;0.10;;;;;;;;;;5120745;28;20251;-71
2021/11/25 01:38:00;;;;;;;0.10;0.10;;;;;;;;;;5113746;28;20208;-71
2021/11/25 01:40:28;;;;;;;0.10;0.10;;;;;;;;;;5123993;28;20198;-71
2021/11/25 01:42:55;;;;;;;0.10;0.10;;;;;;;;;;5114954;28;20206;-71
2021/11/25 01:45:24;;;;;;;0.80;0.80;;;;;;;;;;5114434;28;20267;-71
2021/11/25 01:47:51;;;;;;;0.10;0.10;;;;;;;;;;5115930;28;20570;-71
2021/11/25 01:50:18;;;;;;;0.10;0.10;;;;;;;;;;5107998;28;20509;-71
2021/11/25 01:52:45;;;;;;;0.10;0.10;;;;;;;;;;5110977;28;20244;-71
2021/11/25 01:55:12;;;;;;;0.20;0.20;;;;;;;;;;5124124;28;20212;-70
2021/11/25 01:57:40;;;;;;;0.20;0.20;;;;;;;;;;5116588;28;20520;-70
2021/11/25 02:00:08;;;;;;;0.10;0.10;;;;;;;;;;5113924;28;20382;-70
2021/11/25 02:02:34;;;;;;;0.10;0.10;;;;;;;;;;5111644;28;20279;-70
2021/11/25 02:05:01;;;;;;;0.10;0.10;;;;;;;;;;5123589;28;20230;-72
2021/11/25 02:07:27;;;;;;;0.20;0.20;;;;;;;;;;5122305;28;20205;-71
2021/11/25 02:09:53;;;;;;;0.10;0.10;;;;;;;;;;5123336;28;20378;-71
2021/11/25 02:12:20;;;;;;;0.20;0.20;;;;;;;;;;5122185;28;20205;-71
2021/11/25 02:14:48;;;;;;;0.20;0.20;;;;;;;;;;5123373;28;20386;-71
2021/11/25 02:17:15;;;;;;;0.10;0.10;;;;;;;;;;5118875;28;20209;-71
2021/11/25 02:19:42;;;;;;;0.10;0.10;;;;;;;;;;5120778;28;20205;-71
2021/11/25 02:22:11;;;;;;;0.10;0.10;;;;;;;;;;5118878;28;20201;-71
2021/11/25 02:24:37;;;;;;;0.60;0.60;;;;;;;;;;5119302;28;20205;-71
2021/11/25 02:27:04;;;;;;;0.17;0.17;;;;;;;;;;5111969;28;20228;-71
2021/11/25 02:29:30;;;;;;;0.10;0.10;;;;;;;;;;5121343;28;20224;-71
2021/11/25 02:31:57;;;;;;;0.13;0.13;;;;;;;;;;5114801;28;20205;-71
2021/11/25 02:34:23;;;;;;;0.20;0.20;;;;;;;;;;5116604;28;20205;-72
2021/11/25 02:36:49;;;;;;;0.20;0.20;;;;;;;;;;5123306;28;20519;-71
2021/11/25 02:39:19;;;;;;;0.10;0.10;;;;;;;;;;5121590;28;20210;-71
2021/11/25 02:41:46;;;;;;;0.10;0.10;;;;;;;;;;5121188;28;20232;-71
2021/11/25 02:44:12;;;;;;;0.30;0.30;;;;;;;;;;5122819;28;20400;-71
2021/11/25 02:46:39;;;;;;;0.10;0.10;;;;;;;;;;5119325;28;20225;-71
2021/11/25 02:49:05;;;;;;;0.83;0.83;;;;;;;;;;5122536;28;20212;-71
2021/11/25 02:51:35;;;;;;;0.20;0.20;;;;;;;;;;5117067;28;20212;-71
2021/11/25 02:54:03;;;;;;;0.10;0.10;;;;;;;;;;5123059;28;20209;-71
2021/11/25 02:56:31;;;;;;;0.10;0.10;;;;;;;;;;5115432;28;20382;-71
2021/11/25 02:58:58;;;;;;;0.10;0.10;;;;;;;;;;5119821;28;20216;-70
2021/11/25 03:01:26;;;;;;;0.20;0.20;;;;;;;;;;5109323;28;20202;-71
2021/11/25 03:03:53;;;;;;;0.10;0.10;;;;;;;;;;5110188;28;20206;-71
2021/11/25 03:06:19;;;;;;;0.10;0.10;;;;;;;;;;5122882;28;20217;-71
2021/11/25 03:08:46;;;;;;;0.13;0.13;;;;;;;;;;5122977;28;20216;-72
2021/11/25 03:11:13;;;;;;;1.27;1.27;;;;;;;;;;5122486;28;20284;-71
2021/11/25 03:13:42;;;;;;;0.10;0.10;;;;;;;;;;5123070;28;20274;-71
2021/11/25 03:16:11;;;;;;;0.90;0.87;;;;;;;;;;5120791;28;20205;-71
2021/11/25 03:18:37;;;;;;;0.17;0.17;;;;;;;;;;5112378;28;20205;-71
2021/11/25 03:21:04;;;;;;;0.20;0.20;;;;;;;;;;5121611;28;20387;-71
2021/11/25 03:23:32;;;;;;;0.20;0.20;;;;;;;;;;5109767;28;20209;-70
2021/11/25 03:25:59;;;;;;;9.03;4.60;;;;;;;;;;5126882;28;20267;-71
2021/11/25 03:28:26;;;;;;;0.20;0.20;;;;;;;;;;5126882;28;20198;-71
2021/11/25 03:30:55;;;;;;;0.17;0.17;;;;;;;;;;5111924;28;20399;-71
2021/11/25 03:33:22;;;;;;;0.10;0.10;;;;;;;;;;5124786;28;20403;-71
2021/11/25 03:35:49;;;;;;;0.13;0.13;;;;;;;;;;5116189;28;20264;-71
2021/11/25 03:38:15;;;;;;;0.10;0.10;;;;;;;;;;5119205;28;20215;-70
2021/11/25 03:40:42;;;;;;;0.10;0.10;;;;;;;;;;5126732;28;20393;-71
2021/11/25 03:43:08;;;;;;;0.10;0.10;;;;;;;;;;5111871;28;20211;-71
2021/11/25 03:45:35;;;;;;;0.10;0.10;;;;;;;;;;5120106;28;20221;-71
2021/11/25 03:48:03;;;;;;;0.20;0.20;;;;;;;;;;5126348;28;20212;-72
2021/11/25 03:50:29;;;;;;;0.10;0.10;;;;;;;;;;5122115;28;20204;-72
2021/11/25 03:52:56;;;;;;;0.20;0.20;;;;;;;;;;5121205;28;20205;-72
2021/11/25 03:55:25;;;;;;;0.10;0.10;;;;;;;;;;5126324;28;20201;-71
2021/11/25 03:57:52;;;;;;;0.20;0.20;;;;;;;;;;5125757;28;20208;-71
2021/11/25 04:00:19;;;;;;;0.20;0.20;;;;;;;;;;5112782;28;20205;-72
2021/11/25 04:02:46;;;;;;;0.10;0.10;;;;;;;;;;5121069;28;20205;-72
2021/11/25 04:05:15;;;;;;;0.20;0.20;;;;;;;;;;5117185;28;20235;-71
2021/11/25 04:07:41;;;;;;;0.10;0.10;;;;;;;;;;5124232;28;20198;-72
2021/11/25 04:10:08;;;;;;;0.20;0.20;;;;;;;;;;5121613;28;20201;-72
2021/11/25 04:12:35;;;;;;;0.10;0.10;;;;;;;;;;5125686;28;20201;-72
2021/11/25 04:15:01;;;;;;;0.20;0.20;;;;;;;;;;5116812;28;20228;-72
2021/11/25 04:17:28;;;;;;;2.03;1.97;;;;;;;;;;5121201;28;20197;-70
2021/11/25 04:19:54;;;;;;;0.10;0.10;;;;;;;;;;5109327;28;20210;-72
2021/11/25 04:22:22;;;;;;;0.20;0.20;;;;;;;;;;5105853;28;20205;-72
2021/11/25 04:24:48;;;;;;;0.10;0.10;;;;;;;;;;5113735;28;20221;-72
2021/11/25 04:27:15;;;;;;;0.20;0.20;;;;;;;;;;5124257;28;20227;-72
2021/11/25 04:29:44;;;;;;;0.20;0.20;;;;;;;;;;5112758;28;20454;-72
2021/11/25 04:37:42;;;;;;;0.10;0.10;;;;;;;;;;5118505;28;20295;-71
2021/11/25 04:40:09;;;;;;;0.13;0.13;;;;;;;;;;5114213;28;20205;-72
2021/11/25 04:42:36;;;;;;;0.20;0.20;;;;;;;;;;5125556;28;20204;-72
2021/11/25 04:45:02;;;;;;;0.20;0.20;;;;;;;;;;5121235;28;20278;-72
2021/11/25 04:47:29;;;;;;;0.10;0.10;;;;;;;;;;5125016;28;20250;-71
2021/11/25 04:49:55;;;;;;;0.17;0.17;;;;;;;;;;5118481;28;20205;-69
2021/11/25 04:52:21;;;;;;;0.20;0.20;;;;;;;;;;5125031;28;20198;-71
2021/11/25 04:54:49;;;;;;;0.20;0.20;;;;;;;;;;5124083;28;20216;-71
2021/11/25 04:57:16;;;;;;;0.20;0.20;;;;;;;;;;5112748;28;20235;-70
2021/11/25 04:59:42;;;;;;;0.20;0.20;;;;;;;;;;5121344;28;20393;-71
2021/11/25 05:02:09;;;;;;;0.20;0.20;;;;;;;;;;5120653;28;21111;-71
2021/11/25 05:04:35;;;;;;;0.20;0.20;;;;;;;;;;5124212;28;20225;-71
2021/11/25 05:07:01;;;;;;;0.20;0.20;;;;;;;;;;5124159;28;20224;-71
2021/11/25 05:09:28;;;;;;;0.10;0.10;;;;;;;;;;5122964;28;20208;-71
2021/11/25 05:11:57;;;;;;;0.10;0.10;;;;;;;;;;5119338;28;20216;-71
2021/11/25 05:14:24;;;;;;;0.20;0.20;;;;;;;;;;5124496;28;20272;-72
2021/11/25 05:16:50;;;;;;;0.20;0.20;;;;;;;;;;5120793;28;20247;-72
2021/11/25 05:19:18;;;;;;;0.20;0.20;;;;;;;;;;5122658;28;20391;-71
2021/11/25 05:21:46;;;;;;;0.17;0.17;;;;;;;;;;5124515;28;20224;-71
2021/11/25 05:24:12;;;;;;;0.10;0.10;;;;;;;;;;5124341;28;20202;-71
2021/11/25 05:26:39;;;;;;;1.20;1.20;;;;;;;;;;5114108;28;20225;-72
2021/11/25 05:29:07;;;;;;;0.10;0.10;;;;;;;;;;5112170;28;20208;-71
2021/11/25 05:31:33;;;;;;;0.20;0.20;;;;;;;;;;5124066;28;20376;-71
2021/11/25 05:33:59;;;;;;;0.20;0.20;;;;;;;;;;5124226;28;20211;-71
2021/11/25 05:36:26;;;;;;;0.20;0.20;;;;;;;;;;5123760;28;20197;-71
2021/11/25 05:38:52;;;;;;;0.13;0.13;;;;;;;;;;5119706;28;20213;-68
2021/11/25 05:41:19;;;;;;;0.10;0.10;;;;;;;;;;5117373;28;20293;-69
2021/11/25 05:43:45;;;;;;;0.10;0.10;;;;;;;;;;5123464;28;20204;-69
2021/11/25 05:46:13;;;;;;;0.20;0.20;;;;;;;;;;5113572;28;20220;-68
2021/11/25 05:48:39;;;;;;;0.10;0.10;;;;;;;;;;5121103;28;20372;-69
2021/11/25 05:51:06;;;;;;;0.20;0.20;;;;;;;;;;5123733;28;20390;-68
2021/11/25 05:53:32;;;;;;;0.17;0.17;;;;;;;;;;5123840;28;20294;-70
2021/11/25 05:55:59;;;;;;;0.20;0.20;;;;;;;;;;5119069;28;20227;-69
2021/11/25 05:58:25;;;;;;;0.20;0.20;;;;;;;;;;5112437;28;20213;-69
2021/11/25 06:00:52;;;;;;;0.20;0.20;;;;;;;;;;5119357;28;20204;-69
2021/11/25 06:03:21;;;;;;;0.10;0.10;;;;;;;;;;5119274;28;20515;-68
2021/11/25 06:05:47;;;;;;;0.20;0.20;;;;;;;;;;5123459;28;20261;-71
2021/11/25 06:08:14;;;;;;;0.20;0.20;;;;;;;;;;5123455;28;20292;-68
2021/11/25 06:10:40;;;;;;;0.10;0.10;;;;;;;;;;5123161;28;20284;-69
2021/11/25 06:13:07;;;;;;;0.10;0.10;;;;;;;;;;5123282;28;20220;-68
2021/11/25 06:15:33;;;;;;;0.20;0.20;;;;;;;;;;5106281;28;20203;-69
2021/11/25 06:18:00;;;;;;;0.40;0.40;;;;;;;;;;5123438;28;20227;-68
2021/11/25 06:20:27;;;;;;;0.10;0.10;;;;;;;;;;5114968;28;20208;-69
2021/11/25 06:22:55;;;;;;;0.20;0.20;;;;;;;;;;5123372;28;20208;-68
2021/11/25 06:25:22;;;;;;;0.20;0.20;;;;;;;;;;5121468;28;20207;-68
2021/11/25 06:27:48;;;;;;;0.13;0.13;;;;;;;;;;5122832;28;20284;-69
2021/11/25 06:30:15;;;;;;;0.20;0.20;;;;;;;;;;5123095;28;20466;-69
2021/11/25 06:32:42;;;;;;;0.10;0.10;;;;;;;;;;5112595;28;20212;-69
2021/11/25 06:35:10;;;;;;;0.10;0.10;;;;;;;;;;5121882;28;20207;-69
2021/11/25 06:37:38;;;;;;;0.10;0.10;;;;;;;;;;5112444;28;20548;-68
2021/11/25 06:40:06;;;;;;;0.13;0.13;;;;;;;;;;5103740;28;20200;-68
2021/11/25 06:42:35;;;;;;;0.10;0.10;;;;;;;;;;5112674;28;20386;-69
2021/11/25 06:45:01;;;;;;;0.20;0.20;;;;;;;;;;5123163;28;20250;-69
2021/11/25 06:47:28;;;;;;;0.20;0.20;;;;;;;;;;5122613;28;20212;-69
2021/11/25 06:49:54;;;;;;;0.20;0.20;;;;;;;;;;5120793;28;20526;-68
2021/11/25 06:52:20;;;;;;;0.20;0.20;;;;;;;;;;5108843;28;20201;-68
2021/11/25 06:54:48;;;;;;;0.20;0.20;;;;;;;;;;5122564;28;20204;-68
2021/11/25 06:57:15;;;;;;;0.20;0.20;;;;;;;;;;5121392;28;20208;-69
2021/11/25 06:59:41;;;;;;;0.20;0.20;;;;;;;;;;5109512;28;20208;-68
2021/11/25 07:02:08;;;;;;;0.10;0.10;;;;;;;;;;5123809;28;20208;-68
2021/11/25 07:04:35;;;;;;;0.20;0.20;;;;;;;;;;5127321;28;20222;-68
2021/11/25 07:07:03;;;;;;;0.20;0.20;;;;;;;;;;5119601;28;20221;-68
2021/11/25 07:09:29;;;;;;;0.17;0.17;;;;;;;;;;5106768;28;20230;-68
2021/11/25 07:11:57;;;;;;;0.33;0.33;;;;;;;;;;5121865;28;20238;-68
2021/11/25 07:14:23;;;;;;;0.20;0.20;;;;;;;;;;5120857;28;20202;-69
2021/11/25 07:16:50;;;;;;;0.20;0.20;;;;;;;;;;5120826;27;20389;-69
2021/11/25 07:19:16;;;;;;;0.20;0.20;;;;;;;;;;5118541;28;20205;-68
2021/11/25 07:21:43;;;;;;;0.20;0.20;;;;;;;;;;5127075;28;20211;-68
2021/11/25 07:24:09;;;;;;;0.20;0.20;;;;;;;;;;5114614;28;20207;-71
2021/11/25 07:26:36;;;;;;;0.30;0.30;;;;;;;;;;5109447;28;20238;-73
2021/11/25 07:29:03;;;;;;;0.10;0.10;;;;;;;;;;5117910;28;20239;-71
2021/11/25 07:31:30;;;;;;;0.10;0.10;;;;;;;;;;5120379;28;20227;-72
2021/11/25 07:33:57;;;;;;;0.20;0.20;;;;;;;;;;5112015;28;20215;-71
2021/11/25 07:36:23;;;;;;;0.20;0.20;;;;;;;;;;5119650;28;20205;-72
2021/11/25 07:38:50;;;;;;;0.20;0.20;;;;;;;;;;5126391;28;20209;-70
2021/11/25 07:41:17;;;;;;;0.10;0.10;;;;;;;;;;5120108;28;20201;-72
2021/11/25 07:43:43;;;;;;;0.13;0.13;;;;;;;;;;5125736;28;20207;-72
2021/11/25 07:46:11;;;;;;;0.20;0.20;;;;;;;;;;5112967;28;20221;-72
2021/11/25 07:48:38;;;;;;;0.10;0.10;;;;;;;;;;5132405;27;20533;-70
2021/11/25 07:51:05;;;;;;;0.10;0.10;;;;;;;;;;5117870;28;20205;-70
2021/11/25 07:53:31;;;;;;;0.13;0.13;;;;;;;;;;5117802;28;20240;-70
2021/11/25 07:55:58;;;;;;;0.90;0.90;;;;;;;;;;5114192;28;20230;-71
2021/11/25 07:58:25;;;;;;;0.40;0.40;;;;;;;;;;5125563;28;20457;-73
2021/11/25 08:00:51;;;;;;;0.17;0.17;;;;;;;;;;5120509;28;20230;-70
2021/11/25 08:03:19;;;;;;;0.20;0.20;;;;;;;;;;5117578;28;20205;-70
2021/11/25 08:05:46;;;;;;;0.30;0.30;;;;;;;;;;5121611;28;20233;-69
2021/11/25 08:08:12;;;;;;;0.20;0.20;;;;;;;;;;5115011;28;20514;-70
2021/11/25 08:10:39;;;;;;;0.20;0.20;;;;;;;;;;5116444;28;20207;-69
2021/11/25 08:13:06;;;;;;;0.20;0.20;;;;;;;;;;5125518;28;20208;-70
2021/11/25 08:15:32;;;;;;;0.20;0.20;;;;;;;;;;5119560;28;20212;-70
2021/11/25 08:17:59;;;;;;;0.10;0.10;;;;;;;;;;5118626;28;20510;-70
2021/11/25 08:20:27;;;;;;;0.10;0.10;;;;;;;;;;5119298;28;20239;-69
2021/11/25 08:22:54;;;;;;;0.17;0.17;;;;;;;;;;5118329;28;20202;-68
2021/11/25 08:25:21;;;;;;;0.20;0.20;;;;;;;;;;5120646;28;20497;-69
2021/11/25 08:27:49;;;;;;;0.10;0.10;;;;;;;;;;5106498;28;20232;-69
2021/11/25 08:30:16;;;;;;;0.10;0.10;;;;;;;;;;5118560;27;20231;-69
2021/11/25 08:32:43;;;;;;;0.10;0.10;;;;;;;;;;5126622;27;20344;-70
2021/11/25 08:35:10;;;;;;;0.20;0.20;;;;;;;;;;5120285;28;20501;-69
2021/11/25 08:37:39;;;;;;;0.20;0.20;;;;;;;;;;5120524;28;20232;-70
2021/11/25 08:40:06;;;;;;;0.20;0.20;;;;;;;;;;5116233;28;20214;-69
2021/11/25 08:42:33;;;;;;;1.13;1.10;;;;;;;;;;5122857;28;20201;-67
2021/11/25 08:44:59;;;;;;;0.10;0.10;;;;;;;;;;5121417;28;20198;-71
2021/11/25 08:47:25;;;;;;;0.17;0.17;;;;;;;;;;5124393;28;20228;-70
2021/11/25 08:49:52;;;;;;;0.10;0.10;;;;;;;;;;5120937;28;20209;-70
2021/11/25 08:52:18;;;;;;;0.20;0.20;;;;;;;;;;5121907;28;20226;-69
2021/11/25 08:54:46;;;;;;;0.20;0.20;;;;;;;;;;5124131;28;20496;-69
2021/11/25 08:57:13;;;;;;;1.50;1.50;;;;;;;;;;5121376;28;20206;-68
2021/11/25 08:59:39;;;;;;;0.20;0.20;;;;;;;;;;5113143;28;20204;-69
2021/11/25 09:02:06;;;;;;;0.20;0.20;;;;;;;;;;5112592;28;20205;-69
2021/11/25 09:04:33;;;;;;;0.20;0.20;;;;;;;;;;5106432;28;20235;-70
2021/11/25 09:06:59;;;;;;;0.20;0.20;;;;;;;;;;5105716;28;20210;-69
2021/11/25 09:09:25;;;;;;;0.20;0.20;;;;;;;;;;5120506;28;20419;-69
2021/11/25 09:11:54;;;;;;;0.10;0.10;;;;;;;;;;5114316;28;20209;-71
2021/11/25 09:14:20;;;;;;;0.10;0.10;;;;;;;;;;5122257;28;20502;-69
2021/11/25 09:16:47;;;;;;;0.20;0.20;;;;;;;;;;5123724;28;20204;-70
2021/11/25 09:19:14;;;;;;;0.10;0.10;;;;;;;;;;5121378;28;20230;-72
2021/11/25 09:21:40;;;;;;;0.20;0.20;;;;;;;;;;5115875;28;20206;-67
2021/11/25 09:24:08;;;;;;;0.20;0.20;;;;;;;;;;5119330;27;20281;-69
2021/11/25 09:26:35;;;;;;;0.20;0.20;;;;;;;;;;5125438;27;20221;-70
2021/11/25 09:29:04;;;;;;;0.10;0.10;;;;;;;;;;5117756;28;20262;-69
2021/11/25 09:31:31;;;;;;;0.10;0.10;;;;;;;;;;5122998;28;20336;-69
2021/11/25 09:33:58;;;;;;;0.10;0.10;;;;;;;;;;5117481;28;20210;-68
2021/11/25 09:36:25;;;;;;;0.10;0.10;;;;;;;;;;5114094;28;20212;-70
2021/11/25 09:38:52;;;;;;;0.20;0.20;;;;;;;;;;5120366;28;20201;-70
2021/11/25 09:41:18;;;;;;;1.53;1.53;;;;;;;;;;5118985;28;20243;-70
2021/11/25 09:43:45;;;;;;;0.10;0.10;;;;;;;;;;5121970;28;20400;-71
2021/11/25 09:46:14;;;;;;;0.20;0.20;;;;;;;;;;5119404;28;20489;-69
2021/11/25 09:48:41;;;;;;;0.20;0.20;;;;;;;;;;5123850;28;20225;-70
2021/11/25 09:51:08;;;;;;;0.10;0.10;;;;;;;;;;5110992;28;20205;-70
2021/11/25 09:53:35;;;;;;;0.10;0.10;;;;;;;;;;5124095;28;20502;-70
2021/11/25 09:56:02;;;;;;;0.20;0.20;;;;;;;;;;5121179;28;20202;-69
2021/11/25 09:58:29;;;;;;;0.10;0.10;;;;;;;;;;5123925;28;20376;-70
2021/11/25 10:00:58;;;;;;;0.20;0.20;;;;;;;;;;5121623;28;20544;-69
2021/11/25 10:03:26;;;;;;;0.10;0.10;;;;;;;;;;5110635;28;20248;-68
2021/11/25 10:05:54;;;;;;;0.30;0.30;;;;;;;;;;5103353;28;20235;-68
2021/11/25 10:08:24;;;;;;;0.27;0.27;;;;;;;;;;5103016;28;20239;-69
2021/11/25 10:10:58;;;;;;;0.20;0.20;;;;;;;;;;5103553;28;20582;-69
2021/11/25 10:13:26;;;;;;;2.33;2.27;;;;;;;;;;5116829;28;20196;-69
2021/11/25 10:15:57;;;;;;;0.20;0.20;;;;;;;;;;5111254;28;20515;-67
2021/11/25 10:18:23;;;;;;;0.20;0.20;;;;;;;;;;5110534;28;20219;-68
2021/11/25 10:20:53;;;;;;;0.10;0.10;;;;;;;;;;5120481;28;20205;-68
2021/11/25 10:23:21;;;;;;;0.30;0.30;;;;;;;;;;5119748;28;20221;-68
2021/11/25 10:25:50;;;;;;;0.10;0.10;;;;;;;;;;5113730;28;20239;-68
2021/11/25 10:28:20;;;;;;;0.20;0.20;;;;;;;;;;5117213;28;20222;-67
2021/11/25 10:30:49;;;;;;;0.10;0.10;;;;;;;;;;5118020;28;20253;-67
2021/11/25 10:33:21;;;;;;;0.20;0.20;;;;;;;;;;5114716;28;20230;-69
2021/11/25 10:36:03;;;;;;;0.10;0.10;;;;;;;;;;5120256;28;20490;-68
2021/11/25 10:38:38;;;;;;;0.20;0.20;;;;;;;;;;5119782;28;20246;-66
2021/11/25 10:41:14;;;;;;;0.10;0.10;;;;;;;;;;5118989;28;20400;-67
2021/11/25 10:43:41;;;;;;;0.57;0.57;;;;;;;;;;5122153;28;20204;-67
2021/11/25 10:46:09;;;;;;;0.10;0.10;;;;;;;;;;5123206;28;20201;-68
2021/11/25 10:48:38;;;;;;;0.20;0.20;;;;;;;;;;5107084;28;20226;-66
2021/11/25 10:51:19;;;;;;;0.10;0.10;;;;;;;;;;5115290;28;20204;-67
2021/11/25 10:54:01;;;;;;;0.10;0.10;;;;;;;;;;5121397;28;20207;-67
2021/11/25 10:56:35;;;;;;;0.10;0.10;;;;;;;;;;5121571;28;20269;-68
2021/11/25 10:59:02;;;;;;;0.20;0.20;;;;;;;;;;5121203;28;20196;-67
2021/11/25 11:01:39;;;;;;;0.20;0.20;;;;;;;;;;5119529;28;20282;-68
2021/11/25 11:04:06;;;;;;;0.20;0.20;;;;;;;;;;5140381;28;20224;-67
2021/11/25 11:06:33;;;;;;;0.20;0.20;;;;;;;;;;5126925;28;20205;-67
2021/11/25 11:09:00;;;;;;;0.10;0.10;;;;;;;;;;5102802;28;20230;-67
2021/11/25 11:11:26;;;;;;;0.20;0.20;;;;;;;;;;5116193;28;20394;-66
2021/11/25 11:14:15;;;;;;;0.10;0.10;;;;;;;;;;5117152;28;20378;-67
2021/11/25 11:16:49;;;;;;;0.20;0.20;;;;;;;;;;5112996;28;20492;-67
2021/11/25 11:19:17;;;;;;;0.10;0.10;;;;;;;;;;5116685;28;20468;-68
2021/11/25 11:21:45;;;;;;;0.30;0.30;;;;;;;;;;5118287;28;20204;-70
2021/11/25 11:24:12;;;;;;;0.20;0.20;;;;;;;;;;5121696;28;20492;-67
2021/11/25 11:26:40;;;;;;;0.10;0.10;;;;;;;;;;5121266;28;20202;-67
2021/11/25 11:29:09;;;;;;;0.20;0.20;;;;;;;;;;5118375;28;20217;-67
2021/11/25 11:31:36;;;;;;;0.20;0.20;;;;;;;;;;5120487;28;20395;-66
2021/11/25 11:34:03;;;;;;;0.20;0.20;;;;;;;;;;5116930;28;20250;-65
2021/11/25 11:36:30;;;;;;;0.20;0.20;;;;;;;;;;5118170;28;20201;-73
2021/11/25 11:38:58;;;;;;;0.10;0.10;;;;;;;;;;5117919;28;20209;-73
2021/11/25 11:41:24;;;;;;;0.20;0.20;;;;;;;;;;5113570;28;20204;-72
2021/11/25 11:43:51;;;;;;;0.10;0.10;;;;;;;;;;5123091;28;20205;-74
2021/11/25 11:46:18;;;;;;;0.17;0.17;;;;;;;;;;5117850;28;20209;-74
2021/11/25 11:48:45;;;;;;;0.20;0.20;;;;;;;;;;5126184;28;20229;-72
2021/11/25 11:51:13;;;;;;;0.20;0.20;;;;;;;;;;5125364;28;20203;-72
2021/11/25 11:53:40;;;;;;;0.10;0.10;;;;;;;;;;5121677;28;20263;-72
2021/11/25 11:56:08;;;;;;;0.10;0.10;;;;;;;;;;5121414;28;20201;-72
2021/11/25 11:58:36;;;;;;;0.20;0.20;;;;;;;;;;5124609;28;20209;-71
2021/11/25 12:01:07;;;;;;;0.20;0.20;;;;;;;;;;5115328;28;20208;-72
2021/11/25 12:03:36;;;;;;;0.20;0.20;;;;;;;;;;5114989;28;20391;-73
2021/11/25 12:06:03;;;;;;;0.20;0.20;;;;;;;;;;5120862;28;20230;-72
2021/11/25 12:08:39;;;;;;;0.20;0.20;;;;;;;;;;5114135;28;20233;-72
2021/11/25 12:11:07;;;;;;;0.10;0.10;;;;;;;;;;5111770;28;20344;-72
2021/11/25 12:13:57;;;;;;;0.17;0.17;;;;;;;;;;5126171;28;20493;-72
2021/11/25 12:16:27;;;;;;;0.20;0.20;;;;;;;;;;5126299;28;20246;-74
2021/11/25 12:18:57;;;;;;;0.20;0.20;;;;;;;;;;5123890;28;20271;-71
2021/11/25 12:21:30;;;;;;;0.20;0.20;;;;;;;;;;5125806;28;20200;-72
2021/11/25 12:24:08;;;;;;;0.80;0.80;;;;;;;;;;5125060;28;20208;-72
2021/11/25 12:26:49;;;;;;;0.20;0.20;;;;;;;;;;5122948;28;20533;-72
2021/11/25 12:29:30;;;;;;;0.10;0.10;;;;;;;;;;5132953;27;20540;-72
2021/11/25 12:32:23;;;;;;;0.10;0.10;;;;;;;;;;5109227;28;20206;-72
2021/11/25 12:34:51;;;;;;;0.20;0.20;;;;;;;;;;5118242;28;20196;-71
2021/11/25 12:37:32;;;;;;;0.10;0.10;;;;;;;;;;5121962;28;20246;-69
2021/11/25 12:39:59;;;;;;;0.40;0.40;;;;;;;;;;5112300;28;20512;-72
2021/11/25 12:42:25;;;;;;;0.20;0.20;;;;;;;;;;5120277;28;20389;-72
2021/11/25 12:44:51;;;;;;;0.30;0.30;;;;;;;;;;5114840;28;20205;-71
2021/11/25 12:47:19;;;;;;;0.20;0.20;;;;;;;;;;5109830;28;20201;-73
2021/11/25 12:49:46;;;;;;;0.10;0.10;;;;;;;;;;5115141;28;20217;-73
2021/11/25 12:55:09;;;;;;;0.20;0.20;;;;;;;;;;5049562;28;20321;-70
2021/11/25 12:57:50;;;;;;;0.20;0.20;;;;;;;;;;5030777;28;20235;-72
2021/11/25 13:00:17;;;;;;;0.10;0.10;;;;;;;;;;5027403;28;20252;-68
2021/11/25 13:02:44;;;;;;;0.10;0.10;;;;;;;;;;5038302;28;20373;-69
2021/11/25 13:05:10;;;;;;;0.20;0.20;;;;;;;;;;5032965;28;20250;-69
2021/11/25 13:07:45;;;;;;;0.10;0.10;;;;;;;;;;5038880;28;20204;-70
2021/11/25 13:10:22;;;;;;;0.20;0.20;;;;;;;;;;5032131;28;20203;-65
2021/11/25 13:12:49;;;;;;;4.73;4.00;;;;;;;;;;5034275;28;20204;-66
2021/11/25 13:15:16;;;;;;;0.20;0.20;;;;;;;;;;5038251;28;20204;-66
2021/11/25 13:17:54;;;;;;;0.13;0.13;;;;;;;;;;5038134;28;20204;-65
2021/11/25 13:20:35;;;;;;;0.20;0.20;;;;;;;;;;5035879;28;20206;-65
2021/11/25 13:23:02;;;;;;;0.20;0.20;;;;;;;;;;5026417;28;20211;-64
2021/11/25 13:25:30;;;;;;;0.20;0.20;;;;;;;;;;5034108;28;20275;-64
2021/11/25 13:27:56;;;;;;;0.10;0.10;;;;;;;;;;5027569;28;20259;-64
2021/11/25 13:30:23;;;;;;;0.20;0.20;;;;;;;;;;5030447;28;20248;-68
2021/11/25 13:32:51;;;;;;;0.10;0.10;;;;;;;;;;5036868;28;20207;-70
2021/11/25 13:35:19;;;;;;;0.40;0.40;;;;;;;;;;5038335;28;20242;-66
2021/11/25 13:37:47;;;;;;;0.10;0.10;;;;;;;;;;5030692;28;20491;-67
2021/11/25 13:40:15;;;;;;;0.20;0.20;;;;;;;;;;5036879;28;20289;-67
2021/11/25 13:42:44;;;;;;;0.10;0.10;;;;;;;;;;5030015;28;20208;-67
2021/11/25 13:45:13;;;;;;;0.20;0.20;;;;;;;;;;5027584;28;20262;-70
2021/11/25 13:47:44;;;;;;;0.20;0.20;;;;;;;;;;5033903;28;20210;-71
2021/11/25 13:50:12;;;;;;;1.07;1.07;;;;;;;;;;5039295;28;20519;-70
2021/11/25 13:52:40;;;;;;;0.10;0.10;;;;;;;;;;5034443;28;20288;-69
2021/11/25 13:55:08;;;;;;;0.20;0.20;;;;;;;;;;5042132;28;20265;-70
2021/11/25 13:57:37;;;;;;;0.20;0.20;;;;;;;;;;5053466;28;20263;-70
2021/11/25 14:00:07;;;;;;;0.20;0.20;;;;;;;;;;5049872;28;20255;-70
2021/11/25 14:02:33;;;;;;;0.20;0.20;;;;;;;;;;5057983;28;20244;-64
2021/11/25 14:05:01;;;;;;;0.20;0.20;;;;;;;;;;5038603;28;20240;-65
2021/11/25 14:07:29;;;;;;;0.20;0.20;;;;;;;;;;5043294;28;20207;-63
2021/11/25 14:10:05;;;;;;;0.10;0.10;;;;;;;;;;5038585;28;20262;-64
2021/11/25 14:12:31;;;;;;;0.10;0.10;;;;;;;;;;5042827;28;20324;-65
2021/11/25 14:14:58;;;;;;;0.10;0.10;;;;;;;;;;5044889;28;20215;-69
2021/11/25 14:17:26;;;;;;;0.60;0.60;;;;;;;;;;5033453;28;20207;-69
2021/11/25 14:19:54;;;;;;;0.30;0.30;;;;;;;;;;5042118;28;20394;-69
2021/11/25 14:22:22;;;;;;;0.30;0.30;;;;;;;;;;5047465;28;20204;-68
2021/11/25 14:24:49;;;;;;;0.20;0.20;;;;;;;;;;5057641;28;20217;-69
2021/11/25 14:30:10;;;;;;;0.40;0.40;;;;;;;;;;5037385;28;20394;-69
2021/11/25 14:32:41;;;;;;;0.20;0.20;;;;;;;;;;5045215;28;20382;-69
2021/11/25 14:35:29;;;;;;;0.20;0.20;;;;;;;;;;5042445;28;20199;-69
2021/11/25 14:37:56;;;;;;;0.20;0.20;;;;;;;;;;5028707;28;20203;-69
2021/11/25 14:40:27;;;;;;;3.40;3.10;;;;;;;;;;5043945;28;20261;-68
2021/11/25 14:43:00;;;;;;;0.10;0.10;;;;;;;;;;5042714;28;20210;-69
2021/11/25 14:45:28;;;;;;;0.20;0.20;;;;;;;;;;5043824;28;20527;-69
2021/11/25 14:47:56;;;;;;;0.10;0.10;;;;;;;;;;5040726;28;20214;-68
2021/11/25 14:50:26;;;;;;;0.10;0.10;;;;;;;;;;5044552;28;20213;-68
2021/11/25 14:52:59;;;;;;;0.20;0.20;;;;;;;;;;5044630;28;20203;-68
2021/11/25 14:55:26;;;;;;;0.20;0.20;;;;;;;;;;5036873;28;20242;-68
2021/11/25 14:57:55;;;;;;;0.17;0.17;;;;;;;;;;5044484;28;20207;-68